Oka, Canada
Current Conditions -  °F | °C
As of 11:00 AM on Thursday 29 Jan 2015 (Local Time) from CYMX Reporting Station
Overcast Overcast  
Wind Chill:   Ceiling: 26000
Heat Index: 10°   Visibility: 20mi
Dew Point: -2°   Wind: 6mph
Humidity: 57%   Direction: 40°NE
Pressure: 30.19"   Gusts: NA
Location:  45.47°N, 74.08°W
Report Text: CYMX 291600Z 04005KT 350V060 20SM FEW150 SCT200 OVC260 M12/M19 A3019 RMK AC1CI4CS4 AC TR SLP229
Loading
Personal Weather Stations






























Interactive Weather Map New forecast layout! Learn more

10-Day Weather Forecast

Advertisements
Track Severe Weather on mobile